createdAt,value
2022-12-23T00:03:18.187Z,65.83
2022-12-23T00:08:30.441Z,64.57
2022-12-23T00:13:46.377Z,64.13
2022-12-23T00:18:45.221Z,60.67
2022-12-23T00:23:47.134Z,59.57
2022-12-23T00:28:46.689Z,54.67
2022-12-23T00:33:48.197Z,54.40
2022-12-23T00:39:06.263Z,58.03
2022-12-23T00:44:06.184Z,57.67
2022-12-23T00:49:22.623Z,53.13
2022-12-23T00:54:23.030Z,54.43
2022-12-23T00:59:24.204Z,55.13
2022-12-23T01:04:40.643Z,50.20
2022-12-23T01:09:40.967Z,48.97
2022-12-23T01:14:40.348Z,46.87
2022-12-23T01:19:39.581Z,44.43
2022-12-23T01:24:38.421Z,43.33
2022-12-23T01:29:38.707Z,46.17
2022-12-23T01:34:37.939Z,48.57
2022-12-23T01:39:36.892Z,48.87
2022-12-23T01:44:55.973Z,65.17
2022-12-23T01:49:58.314Z,89.83
2022-12-23T01:54:58.501Z,66.07
2022-12-23T02:00:15.895Z,53.67
2022-12-23T02:05:17.994Z,51.63
2022-12-23T02:10:17.243Z,49.30
2022-12-23T02:15:47.482Z,50.33
2022-12-23T02:21:13.732Z,47.53
2022-12-23T02:26:43.868Z,46.23
2022-12-23T02:31:56.902Z,45.23
2022-12-23T02:37:02.315Z,49.57
2022-12-23T02:42:09.352Z,48.47
2022-12-23T02:47:13.911Z,47.77
2022-12-23T02:52:15.469Z,46.40
2022-12-23T02:57:18.130Z,49.00
2022-12-23T03:02:18.860Z,47.13
2022-12-23T03:07:21.941Z,48.97
2022-12-23T03:12:29.516Z,35.87
2022-12-23T03:17:56.654Z,46.33
2022-12-23T03:23:04.900Z,46.50
2022-12-23T03:28:12.334Z,47.80
2022-12-23T03:33:16.725Z,47.83
2022-12-23T03:38:18.786Z,48.07
2022-12-23T03:43:23.536Z,36.87
2022-12-23T03:48:28.284Z,38.50
2022-12-23T03:53:31.858Z,33.87
2022-12-23T03:58:39.137Z,33.65
2022-12-23T04:03:48.143Z,38.87
2022-12-23T04:08:49.888Z,38.30
2022-12-23T04:13:49.616Z,41.57
2022-12-23T04:18:49.895Z,39.40
2022-12-23T04:23:48.829Z,41.97
2022-12-23T04:28:48.041Z,41.80
2022-12-23T04:33:47.028Z,44.87
2022-12-23T04:38:47.223Z,40.83
2022-12-23T04:43:52.569Z,41.83
2022-12-23T04:48:52.109Z,38.53
2022-12-23T04:53:52.395Z,39.23
2022-12-23T04:58:51.200Z,42.63
2022-12-23T05:03:50.304Z,43.00
2022-12-23T05:08:49.104Z,42.80
2022-12-23T05:13:49.216Z,42.53
2022-12-23T05:18:48.200Z,52.20
2022-12-23T05:23:46.952Z,46.13
2022-12-23T05:28:46.441Z,50.33
2022-12-23T05:33:46.812Z,44.73
2022-12-23T05:38:45.713Z,45.87
2022-12-23T05:43:44.849Z,49.73
2022-12-23T05:48:43.700Z,53.20
2022-12-23T05:53:43.886Z,53.53
2022-12-23T06:03:45.418Z,48.67
2022-12-23T06:08:45.846Z,50.17
2022-12-23T06:13:44.685Z,40.43
2022-12-23T06:18:46.612Z,52.93
2022-12-23T06:23:47.478Z,42.63
2022-12-23T06:28:46.436Z,43.87
2022-12-23T06:33:45.446Z,48.23
2022-12-23T06:38:44.238Z,62.30
2022-12-23T06:43:44.409Z,58.03
2022-12-23T06:48:43.128Z,41.83
2022-12-23T06:53:42.504Z,38.20
2022-12-23T06:58:41.220Z,41.20
2022-12-23T07:03:41.505Z,43.43
2022-12-23T07:08:41.536Z,48.23
2022-12-23T07:13:40.259Z,70.50
2022-12-23T07:18:39.044Z,80.40
2022-12-23T07:23:39.399Z,81.27
2022-12-23T07:28:38.440Z,82.47
2022-12-23T07:33:37.272Z,71.67
2022-12-23T07:38:36.102Z,62.17
2022-12-23T07:43:36.361Z,66.97
2022-12-23T07:48:35.114Z,54.13
2022-12-23T07:53:33.801Z,48.93
2022-12-23T07:58:37.894Z,77.82
2022-12-23T08:03:38.265Z,57.40
2022-12-23T08:08:37.231Z,55.28
2022-12-23T08:13:39.307Z,40.47
2022-12-23T08:18:39.937Z,42.10
2022-12-23T08:23:41.611Z,42.97
2022-12-23T08:28:43.754Z,49.00
2022-12-23T08:33:44.409Z,47.33
2022-12-23T08:38:43.631Z,54.13
2022-12-23T08:43:45.952Z,53.93
2022-12-23T08:48:49.515Z,50.73
2022-12-23T08:53:51.558Z,52.25
2022-12-23T08:59:00.141Z,46.20
2022-12-23T09:04:08.110Z,34.28
2022-12-23T09:09:07.437Z,28.85
2022-12-23T09:14:08.744Z,29.55
2022-12-23T09:19:08.101Z,29.55
2022-12-23T09:24:10.108Z,27.02
2022-12-23T09:29:12.823Z,30.65
2022-12-23T09:34:12.543Z,30.00
2022-12-23T09:39:12.722Z,28.17
2022-12-23T09:44:33.510Z,28.08
2022-12-23T09:49:33.622Z,30.63
2022-12-23T09:54:41.536Z,28.65
2022-12-23T09:59:56.664Z,29.38
2022-12-23T10:05:04.330Z,31.92
2022-12-23T10:10:13.319Z,24.55
2022-12-23T10:15:23.039Z,30.00
2022-12-23T10:20:33.089Z,28.25
2022-12-23T10:25:36.578Z,27.05
2022-12-23T10:31:05.687Z,29.73
2022-12-23T10:36:10.807Z,26.75
2022-12-23T10:41:23.038Z,31.70
2022-12-23T10:46:43.171Z,36.65
2022-12-23T10:51:48.315Z,31.25
2022-12-23T10:56:47.395Z,29.42
2022-12-23T11:01:54.373Z,24.92
2022-12-23T11:07:18.034Z,25.80
2022-12-23T11:12:15.032Z,22.65
2022-12-23T11:17:23.577Z,24.20
2022-12-23T11:22:27.919Z,30.02
2022-12-23T11:27:27.011Z,26.17
2022-12-23T11:32:29.728Z,23.00
2022-12-23T11:37:36.323Z,22.95
2022-12-23T11:42:36.347Z,22.77
2022-12-23T11:47:40.291Z,26.02
2022-12-23T11:52:54.231Z,25.35
2022-12-23T11:57:54.002Z,26.52
2022-12-23T12:02:57.708Z,27.00
2022-12-23T12:08:01.608Z,27.80
2022-12-23T12:13:05.086Z,28.63
2022-12-23T12:18:08.216Z,26.77
2022-12-23T12:23:14.596Z,28.30
2022-12-23T12:28:19.980Z,26.27
2022-12-23T12:33:24.913Z,27.83
2022-12-23T12:38:28.501Z,26.17
2022-12-23T12:48:42.388Z,24.65
2022-12-23T12:53:56.205Z,27.25
2022-12-23T12:58:57.865Z,30.00
2022-12-23T13:04:26.317Z,28.10
2022-12-23T13:09:39.339Z,29.80
2022-12-23T13:14:50.178Z,29.55
2022-12-23T13:19:56.201Z,27.88
2022-12-23T13:25:02.921Z,28.83
2022-12-23T13:30:06.490Z,26.02
2022-12-23T13:40:26.218Z,28.85
2022-12-23T13:45:57.515Z,29.85
2022-12-23T13:51:03.056Z,32.60
2022-12-23T13:56:19.466Z,37.30
2022-12-23T14:01:37.341Z,35.58
2022-12-23T14:06:58.641Z,37.85
2022-12-23T14:12:13.924Z,33.70
2022-12-23T14:17:24.383Z,38.90
2022-12-23T14:22:38.607Z,32.92
2022-12-23T14:27:53.662Z,53.20
2022-12-23T14:32:58.259Z,62.63
2022-12-23T14:38:30.064Z,46.05
2022-12-23T14:44:02.220Z,43.47
2022-12-23T14:49:38.454Z,37.92
2022-12-23T14:55:06.071Z,41.30
2022-12-23T15:00:11.671Z,61.30
2022-12-23T15:05:11.149Z,50.20
2022-12-23T15:10:20.085Z,50.55
2022-12-23T15:15:23.686Z,63.72
2022-12-23T15:20:27.457Z,56.45
2022-12-23T15:25:28.917Z,48.38
2022-12-23T15:30:34.165Z,41.53
2022-12-23T15:35:37.010Z,43.85
2022-12-23T15:40:38.003Z,48.93
2022-12-23T15:45:42.584Z,43.00
2022-12-23T15:50:45.743Z,43.25
2022-12-23T15:55:47.598Z,66.97
2022-12-23T16:00:55.714Z,58.90
2022-12-23T16:05:54.847Z,72.25
2022-12-23T16:11:08.772Z,61.85
2022-12-23T16:16:34.006Z,81.50
2022-12-23T16:21:37.866Z,56.67
2022-12-23T16:26:49.140Z,68.32
2022-12-23T16:32:01.774Z,62.65
2022-12-23T16:42:02.196Z,60.05
2022-12-23T16:47:08.283Z,57.53
2022-12-23T16:52:11.404Z,60.10
2022-12-23T16:57:14.118Z,68.85
2022-12-23T17:02:22.907Z,60.92
2022-12-23T17:07:26.551Z,61.45
2022-12-23T17:12:26.282Z,71.80
2022-12-23T17:17:26.641Z,75.72
2022-12-23T17:22:29.496Z,93.68
2022-12-23T17:27:28.371Z,70.87
2022-12-23T17:32:29.256Z,80.13
2022-12-23T17:37:31.299Z,61.60
2022-12-23T17:42:39.189Z,85.38
2022-12-23T17:47:39.491Z,68.45
2022-12-23T17:52:38.579Z,62.67
2022-12-23T17:57:37.399Z,65.97
2022-12-23T18:02:36.271Z,74.75
2022-12-23T18:07:38.454Z,77.13
2022-12-23T18:12:40.400Z,90.57
2022-12-23T18:17:39.435Z,81.63
2022-12-23T18:22:41.517Z,85.60
2022-12-23T18:27:40.315Z,86.32
2022-12-23T18:32:42.046Z,84.25
2022-12-23T18:37:43.599Z,82.35
2022-12-23T18:42:42.437Z,77.05
2022-12-23T18:47:43.980Z,71.13
2022-12-23T18:52:46.632Z,72.63
2022-12-23T18:57:45.477Z,79.97
2022-12-23T19:02:44.813Z,108.78
2022-12-23T19:07:45.477Z,127.28
2022-12-23T19:12:44.208Z,157.57
2022-12-23T19:17:43.025Z,116.40
2022-12-23T19:22:42.392Z,100.13
2022-12-23T19:27:47.729Z,116.88
2022-12-23T19:32:46.874Z,99.40
2022-12-23T19:37:45.665Z,82.50
2022-12-23T19:42:46.346Z,100.13
2022-12-23T19:47:46.822Z,115.43
2022-12-23T19:52:50.227Z,96.88
2022-12-23T19:57:49.064Z,94.35
2022-12-23T20:02:55.109Z,100.25
2022-12-23T20:07:58.768Z,99.07
2022-12-23T20:12:57.666Z,86.40
2022-12-23T20:18:00.674Z,80.55
2022-12-23T20:22:59.650Z,68.00
2022-12-23T20:27:58.461Z,72.93
2022-12-23T20:32:59.410Z,83.63
2022-12-23T20:37:58.208Z,72.18
2022-12-23T20:42:58.397Z,62.40
2022-12-23T20:47:58.606Z,66.38
2022-12-23T20:52:57.586Z,58.85
2022-12-23T20:57:56.554Z,59.38
2022-12-23T21:03:08.385Z,90.72
2022-12-23T21:08:10.613Z,68.70
2022-12-23T21:13:11.136Z,73.00
2022-12-23T21:18:10.037Z,73.35
2022-12-23T21:23:10.193Z,62.92
2022-12-23T21:28:08.917Z,58.38
2022-12-23T21:33:07.768Z,64.10
2022-12-23T21:38:06.673Z,58.67
2022-12-23T21:43:08.835Z,57.65
2022-12-23T21:48:10.195Z,59.03
2022-12-23T21:53:09.011Z,53.58
2022-12-23T21:58:09.714Z,49.40
2022-12-23T22:03:10.796Z,55.05
2022-12-23T22:08:11.994Z,54.17
2022-12-23T22:13:12.840Z,56.08
2022-12-23T22:18:11.779Z,64.35
2022-12-23T22:23:10.896Z,58.05
2022-12-23T22:28:09.866Z,56.63
2022-12-23T22:33:10.475Z,48.20
2022-12-23T22:38:11.223Z,46.90
2022-12-23T22:43:10.029Z,44.55
2022-12-23T22:48:10.283Z,43.60
2022-12-23T22:53:09.364Z,50.30
2022-12-23T22:58:08.264Z,44.03
2022-12-23T23:03:07.148Z,39.58
2022-12-23T23:08:08.608Z,39.58
2022-12-23T23:13:07.352Z,69.47
2022-12-23T23:18:06.281Z,47.92
2022-12-23T23:23:05.123Z,42.38
2022-12-23T23:28:05.987Z,48.72
2022-12-23T23:33:04.989Z,40.10
2022-12-23T23:38:03.860Z,49.00
2022-12-23T23:43:02.838Z,39.28
2022-12-23T23:48:11.231Z,38.80
2022-12-23T23:53:10.705Z,37.97
2022-12-23T23:58:10.292Z,36.85
